Time;durP1;ratioP1;P1;durP2;ratioP2;P2;SDS_P1;SDS_P2;PMS_P1;PMS_P2;Temp;Humidity;BMP_temperature;BMP_pressure;BME280_temperature;BME280_humidity;BME280_pressure;Samples;Min_cycle;Max_cycle;Signal;HPM_P1;HPM_P2
2022/01/22 00:00:20;;;;;;;12.35;5.13;;;;;;;4.20;100.00;103286.19;5014551;28;20060;-75
2022/01/22 00:02:46;;;;;;;9.48;4.20;;;;;;;4.04;100.00;103277.50;5008062;28;20708;-76
2022/01/22 00:05:12;;;;;;;12.68;4.78;;;;;;;4.08;100.00;103293.44;5008333;28;20032;-75
2022/01/22 00:07:38;;;;;;;7.82;4.00;;;;;;;4.11;100.00;103296.06;5012754;28;20112;-72
2022/01/22 00:10:07;;;;;;;12.20;4.65;;;;;;;4.08;100.00;103289.03;5013475;28;20554;-74
2022/01/22 00:15:03;;;;;;;11.50;4.68;;;;;;;4.13;100.00;103279.19;5018101;28;20028;-74
2022/01/22 00:17:29;;;;;;;7.43;3.95;;;;;;;3.79;100.00;103212.25;5012758;28;20044;-72
2022/01/22 00:19:54;;;;;;;10.18;4.63;;;;;;;4.02;100.00;103267.81;5010567;28;20365;-75
2022/01/22 00:22:24;;;;;;;11.25;4.03;;;;;;;4.10;100.00;103281.00;5009905;28;20030;-74
2022/01/22 00:24:54;;;;;;;9.48;3.65;;;;;;;4.04;100.00;103290.81;5011458;28;20103;-74
2022/01/22 00:27:20;;;;;;;10.50;3.78;;;;;;;4.04;100.00;103293.47;5014145;28;20128;-73
2022/01/22 00:29:45;;;;;;;12.88;4.57;;;;;;;4.03;100.00;103283.72;5011333;28;20480;-75
2022/01/22 00:32:11;;;;;;;9.30;4.57;;;;;;;4.01;100.00;103284.66;5013642;28;20033;-75
2022/01/22 00:34:37;;;;;;;11.13;4.78;;;;;;;4.15;100.00;103288.03;5011031;28;20037;-74
2022/01/22 00:37:03;;;;;;;9.63;4.13;;;;;;;3.97;100.00;103269.63;5020747;28;20048;-74
2022/01/22 00:39:29;;;;;;;10.75;4.88;;;;;;;4.13;100.00;103259.72;4995727;28;20108;-74
2022/01/22 00:41:55;;;;;;;16.15;4.75;;;;;;;4.10;100.00;103246.44;5014246;28;20033;-75
2022/01/22 00:44:20;;;;;;;9.25;4.85;;;;;;;4.14;100.00;103264.13;5007936;28;20023;-74
2022/01/22 00:46:45;;;;;;;15.45;5.15;;;;;;;4.10;100.00;103278.34;5014798;28;20105;-73
2022/01/22 00:49:11;;;;;;;15.00;5.95;;;;;;;4.00;100.00;103264.28;5009872;28;20470;-74
2022/01/22 00:51:36;;;;;;;11.02;5.95;;;;;;;3.99;100.00;103267.84;5010674;28;20425;-74
2022/01/22 00:54:01;;;;;;;11.32;5.95;;;;;;;4.03;100.00;103270.44;4995676;28;20725;-73
2022/01/22 00:56:27;;;;;;;13.88;6.53;;;;;;;4.02;100.00;103258.03;5012622;28;20026;-73
2022/01/22 00:58:52;;;;;;;12.60;5.80;;;;;;;4.08;100.00;103266.84;5014726;28;20026;-74
2022/01/22 01:01:17;;;;;;;9.68;5.40;;;;;;;4.01;100.00;103266.91;5027225;28;20039;-74
2022/01/22 01:03:46;;;;;;;18.35;7.00;;;;;;;4.04;100.00;103263.38;5008597;28;20337;-74
2022/01/22 01:06:11;;;;;;;11.68;5.57;;;;;;;4.08;100.00;103275.72;4995482;28;20029;-74
2022/01/22 01:08:37;;;;;;;8.48;5.68;;;;;;;4.08;100.00;103278.38;4996737;28;20041;-74
2022/01/22 01:11:03;;;;;;;14.63;6.03;;;;;;;3.95;100.00;103260.78;5015304;28;20079;-74
2022/01/22 01:13:32;;;;;;;12.27;5.97;;;;;;;4.02;100.00;103260.69;4993954;28;20116;-73
2022/01/22 01:16:14;;;;;;;15.02;6.93;;;;;;;4.02;100.00;103258.03;5011368;28;20022;-74
2022/01/22 01:32:26;;;;;;;11.38;6.20;;;;;;;3.99;100.00;103283.78;5010714;28;20088;-74
2022/01/22 01:34:51;;;;;;;15.57;7.63;;;;;;;3.90;100.00;103259.06;4999112;28;20033;-72
2022/01/22 01:37:19;;;;;;;10.73;6.57;;;;;;;3.99;100.00;103289.09;4993628;28;20025;-73
2022/01/22 01:39:47;;;;;;;21.55;9.45;;;;;;;3.96;100.00;103281.16;4996531;28;20068;-74
2022/01/22 01:42:52;;;;;;;18.92;7.55;;;;;;;3.99;100.00;103291.78;4995060;28;20030;-73
2022/01/22 01:45:06;;;;;;;18.02;7.43;;;;;;;3.89;100.00;103280.34;5007292;28;20201;-73
2022/01/22 01:47:32;;;;;;;19.48;9.18;;;;;;;3.95;100.00;103277.63;5007660;28;20029;-74
2022/01/22 01:49:57;;;;;;;16.98;8.45;;;;;;;3.91;100.00;103283.88;5015540;28;20044;-73
2022/01/22 01:52:34;;;;;;;19.70;8.15;;;;;;;3.86;100.00;103272.41;5008115;28;20029;-73
2022/01/22 01:55:09;;;;;;;22.02;8.75;;;;;;;3.93;100.00;103279.44;5001103;28;20029;-73
2022/01/22 01:57:42;;;;;;;19.10;8.98;;;;;;;3.92;100.00;103274.13;4995950;28;20022;-73
2022/01/22 02:00:11;;;;;;;16.98;9.07;;;;;;;3.89;100.00;103269.72;5013600;28;20402;-73
2022/01/22 02:02:38;;;;;;;15.63;8.75;;;;;;;3.86;100.00;103272.41;5005587;28;20034;-74
2022/01/22 02:05:04;;;;;;;10.65;6.93;;;;;;;3.90;100.00;103269.69;5015161;28;20021;-73
2022/01/22 02:07:29;;;;;;;25.67;10.35;;;;;;;3.90;100.00;103260.84;5007893;28;20033;-74
2022/01/22 02:09:54;;;;;;;13.98;9.13;;;;;;;3.94;100.00;103275.88;4999633;28;20075;-73
2022/01/22 02:25:55;;;;;;;25.65;10.38;;;;;;;3.90;100.00;103271.47;5013716;28;20607;-73
2022/01/22 02:28:20;;;;;;;28.55;12.30;;;;;;;3.84;100.00;103269.75;5011552;28;20056;-73
2022/01/22 02:30:49;;;;;;;15.73;8.85;;;;;;;3.86;100.00;103259.97;4998948;28;20029;-73
2022/01/22 02:36:22;;;;;;;23.70;9.65;;;;;;;3.93;100.00;103281.19;5014072;28;20531;-73
2022/01/22 02:39:35;;;;;;;32.58;10.82;;;;;;;3.88;100.00;103275.94;5015614;28;20099;-73
2022/01/22 02:41:30;;;;;;;25.38;10.48;;;;;;;3.81;100.00;103266.25;5004107;28;20486;-73
2022/01/22 02:43:56;;;;;;;25.48;11.20;;;;;;;3.95;100.00;103271.44;5016653;28;20647;-73
2022/01/22 02:46:24;;;;;;;18.77;9.20;;;;;;;3.87;100.00;103266.19;5009106;28;20033;-73
2022/01/22 02:48:51;;;;;;;24.75;10.77;;;;;;;3.90;100.00;103279.47;4996827;28;20032;-72
2022/01/22 02:51:17;;;;;;;21.85;11.73;;;;;;;3.85;100.00;103271.50;5011533;28;20025;-73
2022/01/22 02:53:42;;;;;;;23.63;11.77;;;;;;;3.89;100.00;103267.94;5012252;28;20033;-73
2022/01/22 02:56:07;;;;;;;25.30;11.02;;;;;;;3.90;100.00;103263.50;4993093;28;20108;-73
2022/01/22 02:58:33;;;;;;;31.00;12.15;;;;;;;3.93;100.00;103268.81;5015227;28;20769;-73
2022/01/22 03:00:59;;;;;;;24.38;11.85;;;;;;;3.84;100.00;103258.25;5013590;28;20554;-74
2022/01/22 03:03:24;;;;;;;28.13;11.30;;;;;;;3.82;100.00;103271.56;5013477;28;20033;-73
2022/01/22 03:05:50;;;;;;;29.02;12.13;;;;;;;3.96;100.00;103275.84;4998415;28;20064;-74
2022/01/22 03:08:16;;;;;;;30.35;12.32;;;;;;;3.87;100.00;103280.34;4995048;28;20029;-74
2022/01/22 03:10:46;;;;;;;22.05;11.68;;;;;;;3.82;100.00;103268.91;5002706;28;20036;-73
2022/01/22 03:14:07;;;;;;;28.77;11.75;;;;;;;3.87;100.00;103272.38;5000233;28;20037;-72
2022/01/22 03:16:29;;;;;;;23.67;11.43;;;;;;;3.93;100.00;103271.47;5014368;28;20062;-72
2022/01/22 03:19:17;;;;;;;23.48;10.10;;;;;;;3.86;100.00;103253.81;5014106;28;20239;-73
2022/01/22 03:21:56;;;;;;;29.30;12.68;;;;;;;3.87;100.00;103258.22;5001722;28;20032;-73
2022/01/22 03:27:24;;;;;;;29.38;12.50;;;;;;;3.83;100.00;103270.69;5014959;28;20103;-73
2022/01/22 03:29:51;;;;;;;;;;;;;;;3.90;100.00;103276.81;5010932;28;20076;-73
2022/01/22 03:32:16;;;;;;;31.05;12.25;;;;;;;3.99;100.00;103284.66;5011438;28;20019;-73
2022/01/22 03:34:53;;;;;;;23.40;12.15;;;;;;;3.90;100.00;103277.66;5011345;28;20433;-73
2022/01/22 03:37:19;;;;;;;22.63;11.15;;;;;;;3.97;100.00;103285.59;5013424;28;20468;-73
2022/01/22 03:39:44;;;;;;;40.22;13.85;;;;;;;4.04;100.00;103279.31;4999020;28;20033;-73
2022/01/22 03:42:09;;;;;;;33.80;12.27;;;;;;;3.94;100.00;103269.66;5015892;28;20063;-73
2022/01/22 03:44:35;;;;;;;32.78;12.60;;;;;;;4.00;100.00;103285.56;4998016;28;20043;-73
2022/01/22 03:47:00;;;;;;;27.95;11.88;;;;;;;3.99;100.00;103286.44;5015266;28;20034;-73
2022/01/22 03:49:25;;;;;;;26.92;11.68;;;;;;;4.01;100.00;103284.66;4998882;28;20064;-73
2022/01/22 03:51:51;;;;;;;27.58;12.25;;;;;;;4.05;100.00;103289.91;5011970;28;20060;-73
2022/01/22 03:54:16;;;;;;;30.55;12.55;;;;;;;3.97;100.00;103283.81;5009209;28;20480;-74
2022/01/22 03:56:45;;;;;;;25.30;12.45;;;;;;;3.96;100.00;103284.72;5012205;28;20038;-73
2022/01/22 03:59:10;;;;;;;27.85;12.20;;;;;;;4.04;100.00;103285.50;4999447;28;20112;-73
2022/01/22 04:04:26;;;;;;;26.87;11.87;;;;;;;4.05;100.00;103289.91;5012111;28;20033;-74
2022/01/22 04:09:41;;;;;;;22.80;11.37;;;;;;;4.12;100.00;103285.41;5010329;28;20065;-73
2022/01/22 04:12:06;;;;;;;37.03;13.75;;;;;;;4.07;100.00;103276.63;5010636;28;20311;-74
2022/01/22 04:14:34;;;;;;;29.02;12.07;;;;;;;4.15;100.00;103276.53;5000671;28;20444;-73
2022/01/22 04:17:19;;;;;;;32.97;11.98;;;;;;;4.14;100.00;103280.09;5011713;28;20368;-74
2022/01/22 04:25:18;;;;;;;24.08;12.07;;;;;;;4.15;100.00;103290.69;5015124;28;20043;-73
2022/01/22 04:27:43;;;;;;;27.13;10.65;;;;;;;4.13;100.00;103276.53;4998648;28;20079;-73
2022/01/22 04:30:09;;;;;;;23.63;10.50;;;;;;;4.13;100.00;103278.31;4999425;28;20373;-73
2022/01/22 04:32:34;;;;;;;23.45;10.80;;;;;;;4.09;100.00;103277.50;5008986;28;20628;-73
2022/01/22 04:35:01;;;;;;;32.17;12.23;;;;;;;4.17;100.00;103275.59;5015459;28;20029;-75
2022/01/22 04:37:27;;;;;;;28.83;12.35;;;;;;;4.21;100.00;103292.41;5005262;28;20033;-74
2022/01/22 04:39:52;;;;;;;28.48;12.70;;;;;;;4.18;100.00;103287.13;4999038;28;20027;-74
2022/01/22 04:42:19;;;;;;;26.05;10.20;;;;;;;4.27;100.00;103281.69;4993499;28;20406;-74
2022/01/22 04:45:15;;;;;;;26.17;10.25;;;;;;;4.30;100.00;103289.63;5014042;28;20111;-73
2022/01/22 04:47:43;;;;;;;17.92;8.88;;;;;;;4.22;100.00;103280.00;5006927;28;20444;-74
2022/01/22 04:55:33;;;;;;;22.45;9.88;;;;;;;4.28;100.00;103299.41;5010810;28;20340;-75
2022/01/22 04:58:03;;;;;;;22.58;9.82;;;;;;;4.30;100.00;103294.94;5012107;28;20029;-74
2022/01/22 05:00:28;;;;;;;21.55;9.45;;;;;;;4.31;100.00;103287.88;4996403;28;20069;-74
2022/01/22 05:02:53;;;;;;;30.25;11.20;;;;;;;4.34;100.00;103291.34;4997306;28;20124;-74
2022/01/22 05:05:19;;;;;;;19.75;10.88;;;;;;;4.32;100.00;103282.50;4999104;28;20476;-74
2022/01/22 05:07:44;;;;;;;26.17;10.77;;;;;;;4.22;100.00;103274.66;5013699;28;20095;-73
2022/01/22 05:10:09;;;;;;;27.58;11.40;;;;;;;4.33;100.00;103278.97;5010817;28;20168;-73
2022/01/22 05:12:35;;;;;;;28.10;11.88;;;;;;;4.34;100.00;103277.19;5011491;28;20044;-74
2022/01/22 05:15:01;;;;;;;25.83;10.73;;;;;;;4.32;100.00;103277.19;5009288;28;20040;-73
2022/01/22 05:17:26;;;;;;;30.98;10.93;;;;;;;4.40;100.00;103269.13;5013092;28;20017;-74
2022/01/22 05:19:59;;;;;;;25.75;12.52;;;;;;;4.43;100.00;103257.56;5001382;28;20069;-74
2022/01/22 05:25:00;;;;;;;25.67;10.75;;;;;;;4.29;100.00;103250.63;5013637;28;20045;-73
2022/01/22 05:38:07;;;;;;;24.45;11.52;;;;;;;4.42;100.00;103253.16;5002896;28;20053;-74
2022/01/22 05:40:33;;;;;;;23.55;11.27;;;;;;;4.39;100.00;103255.84;5014523;28;20026;-73
2022/01/22 05:42:59;;;;;;;26.38;11.20;;;;;;;4.36;100.00;103254.13;5001057;28;20408;-74
2022/01/22 05:45:24;;;;;;;23.15;10.43;;;;;;;4.43;100.00;103266.41;5001066;28;20364;-74
2022/01/22 05:47:50;;;;;;;33.45;11.75;;;;;;;4.44;100.00;103272.63;5002683;28;20029;-73
2022/01/22 05:50:28;;;;;;;30.67;11.52;;;;;;;4.45;100.00;103275.25;5002423;28;20041;-71
2022/01/22 05:53:01;;;;;;;31.33;10.55;;;;;;;4.35;100.00;103278.97;5005839;28;20030;-73
2022/01/22 06:00:54;;;;;;;30.42;12.10;;;;;;;4.41;100.00;103278.84;5030752;28;20099;-73
2022/01/22 06:03:20;;;;;;;25.67;11.23;;;;;;;4.43;100.00;103278.84;5017689;28;20159;-72
2022/01/22 06:05:45;;;;;;;32.90;12.82;;;;;;;4.47;100.00;103286.75;5018408;28;20075;-72
2022/01/22 06:08:15;;;;;;;32.05;11.82;;;;;;;4.50;100.00;103283.22;5016680;28;20033;-72
2022/01/22 06:10:41;;;;;;;28.63;12.40;;;;;;;4.33;100.00;103267.44;5003098;28;20112;-72
2022/01/22 06:13:19;;;;;;;28.83;11.38;;;;;;;4.45;100.00;103283.25;5014959;28;20039;-73
2022/01/22 06:15:44;;;;;;;34.25;11.95;;;;;;;4.41;100.00;103283.31;5015036;28;20072;-72
2022/01/22 06:18:09;;;;;;;30.50;12.90;;;;;;;4.32;100.00;103273.66;5013292;28;20594;-73
2022/01/22 06:20:35;;;;;;;31.80;12.38;;;;;;;4.30;100.00;103270.16;5010645;28;20064;-73
2022/01/22 06:23:01;;;;;;;28.02;11.30;;;;;;;4.42;100.00;103282.41;5014154;28;20060;-72
2022/01/22 06:25:26;;;;;;;28.35;11.63;;;;;;;4.39;100.00;103283.31;5018802;28;20098;-73
2022/01/22 06:27:52;;;;;;;33.05;12.20;;;;;;;4.40;100.00;103285.06;5001702;28;20041;-73
2022/01/22 06:30:17;;;;;;;34.30;11.57;;;;;;;4.44;100.00;103280.63;5015188;28;20092;-73
2022/01/22 06:32:42;;;;;;;29.42;12.07;;;;;;;4.42;100.00;103272.63;5011457;28;20374;-73
2022/01/22 06:35:08;;;;;;;34.67;12.60;;;;;;;4.40;100.00;103270.91;4997547;28;20152;-72
2022/01/22 06:37:34;;;;;;;46.33;18.45;;;;;;;4.45;100.00;103290.34;5009966;28;20052;-73
2022/01/22 06:42:30;;;;;;;33.40;13.63;;;;;;;4.50;100.00;103297.38;5011405;28;20117;-73
2022/01/22 06:44:57;;;;;;;33.13;14.05;;;;;;;4.46;100.00;103300.09;5016788;28;20711;-73
2022/01/22 06:47:22;;;;;;;33.08;12.73;;;;;;;4.47;100.00;103297.41;5009423;28;20033;-73
2022/01/22 06:49:47;;;;;;;36.30;17.02;;;;;;;4.44;100.00;103308.09;5002341;28;20048;-73
2022/01/22 06:52:12;;;;;;;44.60;18.85;;;;;;;4.52;100.00;103304.44;5012438;28;20168;-74
2022/01/22 06:54:39;;;;;;;36.53;14.02;;;;;;;4.48;100.00;103307.16;5015363;28;20116;-72
2022/01/22 06:57:04;;;;;;;34.58;13.07;;;;;;;4.45;100.00;103312.50;5011675;28;20021;-74
2022/01/22 06:59:30;;;;;;;34.47;13.23;;;;;;;4.51;100.00;103308.88;5002167;28;20081;-72
2022/01/22 07:01:56;;;;;;;36.22;13.13;;;;;;;4.46;100.00;103308.09;5010769;28;20502;-73
2022/01/22 07:04:22;;;;;;;33.83;12.05;;;;;;;4.50;100.00;103315.13;5014579;28;20073;-73
2022/01/22 07:06:47;;;;;;;27.23;10.40;;;;;;;4.59;100.00;103304.34;5009977;28;20832;-73
2022/01/22 07:09:12;;;;;;;31.42;13.75;;;;;;;4.57;100.00;103313.28;5004988;28;20427;-73
2022/01/22 07:11:37;;;;;;;40.70;14.45;;;;;;;4.59;100.00;103317.66;5006923;28;20061;-73
2022/01/22 07:14:03;;;;;;;54.33;20.10;;;;;;;4.61;100.00;103321.19;5019891;28;20037;-73
2022/01/22 07:16:29;;;;;;;30.58;12.18;;;;;;;4.60;100.00;103327.41;5000752;28;20064;-73
2022/01/22 07:18:59;;;;;;;38.22;14.02;;;;;;;4.56;100.00;103317.69;5000628;28;20395;-73
2022/01/22 07:21:27;;;;;;;54.63;19.80;;;;;;;4.64;100.00;103329.13;4996245;28;20029;-74
2022/01/22 07:26:27;;;;;;;52.83;19.60;;;;;;;4.61;100.00;103331.81;5011778;28;20047;-74
2022/01/22 07:28:53;;;;;;;56.63;20.58;;;;;;;4.67;100.00;103346.81;5014212;28;20082;-74
2022/01/22 07:31:20;;;;;;;47.35;20.95;;;;;;;4.80;100.00;103348.44;4993203;28;20108;-74
2022/01/22 07:33:46;;;;;;;31.25;12.27;;;;;;;4.72;100.00;103338.81;5017481;28;20057;-74
2022/01/22 07:36:11;;;;;;;64.72;22.08;;;;;;;4.67;100.00;103340.63;5012186;28;20141;-74
2022/01/22 07:38:39;;;;;;;69.25;24.30;;;;;;;4.80;100.00;103344.88;5008024;28;20033;-73
2022/01/22 07:41:07;;;;;;;54.22;22.00;;;;;;;4.72;100.00;103339.66;5010336;28;20026;-73
2022/01/22 07:43:32;;;;;;;30.15;12.88;;;;;;;4.82;100.00;103345.75;4998144;28;20431;-73
2022/01/22 07:45:57;;;;;;;75.22;39.10;;;;;;;4.75;100.00;103333.44;4993730;28;20168;-74
2022/01/22 07:48:23;;;;;;;22.48;10.00;;;;;;;4.85;100.00;103353.69;5010537;28;20048;-73
2022/01/22 07:50:48;;;;;;;22.75;6.53;;;;;;;4.74;100.00;103332.53;5009771;28;20029;-74
2022/01/22 07:53:13;;;;;;;12.80;5.88;;;;;;;4.80;100.00;103339.56;5012642;28;20032;-74
2022/01/22 07:55:39;;;;;;;17.42;9.52;;;;;;;4.84;100.00;103340.41;5014097;28;20033;-74
2022/01/22 07:58:04;;;;;;;19.05;7.55;;;;;;;4.87;100.00;103343.91;5014482;28;20053;-74
2022/01/22 08:00:29;;;;;;;20.85;7.30;;;;;;;4.89;100.00;103328.78;4996964;28;20491;-74
2022/01/22 08:02:55;;;;;;;20.48;8.50;;;;;;;4.89;100.00;103344.78;5001475;28;20026;-74
2022/01/22 08:05:20;;;;;;;25.92;11.00;;;;;;;4.87;100.00;103341.25;5012508;28;20163;-75
2022/01/22 08:07:45;;;;;;;16.35;5.57;;;;;;;4.89;100.00;103334.13;4998941;28;20033;-74
2022/01/22 08:10:12;;;;;;;21.83;6.68;;;;;;;4.97;100.00;103333.16;5013857;28;20427;-74
2022/01/22 08:12:38;;;;;;;14.00;4.97;;;;;;;4.95;100.00;103322.50;5005082;28;20075;-74
2022/01/22 08:15:05;;;;;;;22.15;8.95;;;;;;;4.94;100.00;103321.63;5015259;28;20079;-75
2022/01/22 08:17:31;;;;;;;22.52;8.65;;;;;;;5.04;100.00;103324.13;5001704;28;20060;-74
2022/01/22 08:19:56;;;;;;;12.27;5.30;;;;;;;5.07;100.00;103329.44;4998843;28;20033;-74
2022/01/22 08:22:22;;;;;;;12.80;4.50;;;;;;;5.19;100.00;103331.91;5014510;28;20032;-74
2022/01/22 08:24:47;;;;;;;9.10;4.22;;;;;;;5.17;100.00;103328.41;4998835;28;20041;-75
2022/01/22 08:27:31;;;;;;;13.30;5.75;;;;;;;5.28;100.00;103346.00;5016091;28;20121;-71
2022/01/22 08:29:57;;;;;;;12.60;4.63;;;;;;;5.25;100.00;103338.94;5001516;28;20053;-76
2022/01/22 08:37:38;;;;;;;25.40;6.40;;;;;;;5.15;100.00;103335.53;5013983;28;20120;-74
2022/01/22 08:40:04;;;;;;;14.85;6.15;;;;;;;5.17;100.00;103343.47;5010227;28;20033;-77
2022/01/22 08:42:29;;;;;;;17.27;9.52;;;;;;;5.28;100.00;103354.88;5015131;28;20042;-76
2022/01/22 08:44:55;;;;;;;14.32;7.32;;;;;;;5.29;100.00;103350.44;4999125;28;20391;-75
2022/01/22 08:47:21;;;;;;;22.23;8.43;;;;;;;5.34;100.00;103345.91;5001793;28;20052;-76
2022/01/22 08:49:46;;;;;;;24.60;9.20;;;;;;;5.30;100.00;103358.41;5008724;28;20030;-76
2022/01/22 08:52:14;;;;;;;32.38;12.30;;;;;;;5.38;100.00;103369.81;5013987;28;20100;-75
2022/01/22 08:54:40;;;;;;;11.05;5.57;;;;;;;5.47;100.00;103378.56;5012197;28;20108;-75
2022/01/22 08:57:06;;;;;;;20.95;9.07;;;;;;;5.46;100.00;103377.69;5016534;28;20033;-75
2022/01/22 08:59:31;;;;;;;18.20;5.97;;;;;;;5.50;100.00;103381.19;5011692;28;20071;-74
2022/01/22 09:01:57;;;;;;;11.68;4.75;;;;;;;5.56;100.00;103381.97;5016717;28;20116;-76
2022/01/22 09:04:22;;;;;;;17.35;5.38;;;;;;;5.56;100.00;103381.97;5016756;28;20025;-75
2022/01/22 09:06:48;;;;;;;11.50;5.28;;;;;;;5.48;100.00;103369.66;5014131;28;20628;-76
2022/01/22 09:09:13;;;;;;;9.45;3.95;;;;;;;5.53;100.00;103379.38;5022800;28;20495;-76
2022/01/22 09:11:41;;;;;;;13.32;5.00;;;;;;;5.56;100.00;103394.41;5018761;28;20112;-76
2022/01/22 09:14:08;;;;;;;18.27;4.78;;;;;;;5.61;100.00;103387.22;5017783;28;20499;-75
2022/01/22 09:16:35;;;;;;;14.90;5.07;;;;;;;5.68;100.00;103385.34;5012587;28;20416;-74
2022/01/22 09:19:06;;;;;;;15.52;4.90;;;;;;;5.76;100.00;103387.88;5017973;28;20060;-76
2022/01/22 09:21:44;;;;;;;16.17;5.63;;;;;;;5.83;100.00;103387.75;5013191;28;20032;-76
2022/01/22 09:24:11;;;;;;;10.40;5.35;;;;;;;5.82;100.00;103385.13;5016112;28;20052;-75
2022/01/22 09:26:36;;;;;;;9.68;4.40;;;;;;;5.80;100.00;103387.81;5008731;28;20036;-75
2022/01/22 09:29:02;;;;;;;13.43;5.65;;;;;;;5.82;100.00;103386.00;5012448;28;20441;-75
2022/01/22 09:31:28;;;;;;;12.63;4.90;;;;;;;5.79;100.00;103388.72;5011520;28;20037;-75
2022/01/22 09:33:59;;;;;;;13.65;4.82;;;;;;;5.88;100.00;103393.03;5006123;28;20238;-75
2022/01/22 09:36:25;;;;;;;15.82;5.88;;;;;;;5.84;100.00;103400.16;5009716;28;20043;-76
2022/01/22 09:38:51;;;;;;;14.52;6.40;;;;;;;5.85;100.00;103404.59;5011937;28;20044;-76
2022/01/22 09:41:17;;;;;;;22.75;6.63;;;;;;;5.84;100.00;103410.84;5006015;28;20407;-75
2022/01/22 09:43:43;;;;;;;16.23;6.85;;;;;;;5.94;100.00;103406.25;5011667;28;20471;-74
2022/01/22 09:46:09;;;;;;;12.07;6.50;;;;;;;5.85;100.00;103404.59;5013408;28;20037;-73
2022/01/22 09:48:39;;;;;;;12.77;6.72;;;;;;;5.90;100.00;103408.97;5011272;28;20416;-74
2022/01/22 09:51:05;;;;;;;15.57;7.00;;;;;;;5.79;100.00;103411.81;4999956;28;20533;-77
2022/01/22 09:53:30;;;;;;;21.10;6.97;;;;;;;5.84;100.00;103405.50;5013088;28;20029;-71
2022/01/22 09:55:55;;;;;;;11.90;6.28;;;;;;;5.93;100.00;103404.50;5012545;28;20051;-71
2022/01/22 09:58:21;;;;;;;20.20;6.38;;;;;;;5.83;100.00;103401.06;5009734;28;20368;-71
2022/01/22 10:00:46;;;;;;;16.85;6.70;;;;;;;5.93;100.00;103409.81;5010779;28;20447;-71
2022/01/22 10:03:20;;;;;;;15.95;7.10;;;;;;;5.91;100.00;103402.75;5015687;28;20149;-71
2022/01/22 10:05:46;;;;;;;16.50;6.60;;;;;;;5.99;100.00;103404.38;5013443;28;20543;-72
2022/01/22 10:08:36;;;;;;;14.65;6.57;;;;;;;5.95;100.00;103400.00;5011429;28;20137;-71
2022/01/22 10:11:02;;;;;;;13.73;5.50;;;;;;;5.85;100.00;103411.72;5014341;28;20057;-71
2022/01/22 10:13:47;;;;;;;14.70;7.88;;;;;;;5.85;100.00;103411.72;5012350;28;20033;-72
2022/01/22 10:16:31;;;;;;;21.40;10.75;;;;;;;5.90;100.00;103423.22;5010303;28;20021;-71
2022/01/22 10:19:12;;;;;;;11.90;6.15;;;;;;;5.97;100.00;103421.31;5010111;28;20378;-71
2022/01/22 10:21:40;;;;;;;16.55;6.57;;;;;;;5.98;100.00;103425.75;5017015;28;20041;-71
2022/01/22 10:24:43;;;;;;;9.05;5.30;;;;;;;5.83;100.00;103429.53;5010400;28;20029;-73
2022/01/22 10:29:54;;;;;;;8.77;5.20;;;;;;;5.82;100.00;103428.66;5005456;28;20073;-71
2022/01/22 10:32:26;;;;;;;15.82;5.75;;;;;;;6.02;100.00;103426.59;5018992;28;20029;-71
2022/01/22 10:35:09;;;;;;;20.52;6.32;;;;;;;5.97;100.00;103434.63;5015528;28;20033;-71
2022/01/22 10:37:34;;;;;;;8.57;5.32;;;;;;;5.94;100.00;103430.25;5016887;28;20068;-71
2022/01/22 10:40:23;;;;;;;15.18;4.93;;;;;;;5.88;100.00;103438.34;5015689;28;20025;-72
2022/01/22 10:42:50;;;;;;;16.08;5.60;;;;;;;5.93;100.00;103439.16;5016430;28;20361;-71
2022/01/22 10:45:23;;;;;;;12.75;4.80;;;;;;;5.98;100.00;103434.59;5012278;28;20053;-71
2022/01/22 10:47:49;;;;;;;10.40;5.38;;;;;;;5.91;100.00;103440.97;5014989;28;20466;-71
2022/01/22 10:50:22;;;;;;;12.60;6.25;;;;;;;6.05;100.00;103440.78;5016821;28;20042;-70
2022/01/22 10:52:52;;;;;;;8.73;6.07;;;;;;;5.82;100.00;103406.44;5015836;28;20048;-71
2022/01/22 10:55:17;;;;;;;11.38;5.15;;;;;;;5.83;100.00;103434.88;5000355;28;20777;-72
2022/01/22 10:58:09;;;;;;;11.77;5.22;;;;;;;5.72;100.00;103429.72;5012780;28;20476;-72
2022/01/22 11:00:35;;;;;;;12.15;5.13;;;;;;;5.69;100.00;103419.09;5014318;28;20614;-72
2022/01/22 11:03:18;;;;;;;12.25;7.07;;;;;;;5.64;100.00;103423.59;5019466;28;20128;-71
2022/01/22 11:05:44;;;;;;;15.80;7.45;;;;;;;5.81;100.00;103426.91;5017237;28;20490;-71
2022/01/22 11:08:13;;;;;;;12.68;5.82;;;;;;;5.81;100.00;103418.00;5012793;28;20184;-71
2022/01/22 11:10:39;;;;;;;15.18;5.57;;;;;;;5.96;100.00;103423.06;5017605;28;20044;-71
2022/01/22 11:13:04;;;;;;;14.95;6.00;;;;;;;5.86;100.00;103419.69;5016867;28;20033;-71
2022/01/22 11:15:30;;;;;;;17.20;5.28;;;;;;;5.89;100.00;103415.22;5018533;28;20392;-72
2022/01/22 11:17:56;;;;;;;15.65;6.22;;;;;;;5.82;100.00;103417.09;5017938;28;20052;-71
2022/01/22 11:20:23;;;;;;;16.02;6.22;;;;;;;5.77;100.00;103413.63;5013094;28;20033;-71
2022/01/22 11:22:50;;;;;;;16.63;6.13;;;;;;;5.95;100.00;103416.00;5016623;28;20056;-72
2022/01/22 11:25:15;;;;;;;11.10;5.57;;;;;;;5.96;100.00;103401.75;5019884;28;20096;-71
2022/01/22 11:27:42;;;;;;;17.73;6.68;;;;;;;6.00;100.00;103399.97;5012354;28;20025;-72
2022/01/22 11:30:10;;;;;;;15.15;6.78;;;;;;;6.12;100.00;103404.19;5002134;28;20459;-71
2022/01/22 11:32:49;;;;;;;16.15;8.30;;;;;;;5.99;100.00;103404.38;5015167;28;20025;-71
2022/01/22 11:35:22;;;;;;;19.58;7.43;;;;;;;6.06;100.00;103412.28;5021688;28;20071;-71
2022/01/22 11:37:52;;;;;;;64.20;27.30;;;;;;;6.11;100.00;103411.31;5019429;28;20021;-71
2022/01/22 11:40:23;;;;;;;45.90;23.13;;;;;;;6.19;100.00;103415.63;5018646;28;20041;-71
2022/01/22 11:45:30;;;;;;;223.48;77.45;;;;;;;6.19;100.00;103423.63;5016820;28;20037;-71
2022/01/22 11:48:09;;;;;;;130.38;51.92;;;;;;;6.18;100.00;103413.88;5012773;28;20034;-71
2022/01/22 11:50:34;;;;;;;38.00;16.33;;;;;;;6.09;100.00;103412.25;5016129;28;20026;-71
2022/01/22 11:53:20;;;;;;;18.85;11.13;;;;;;;6.15;100.00;103433.47;5013323;28;20033;-72
2022/01/22 11:56:11;;;;;;;21.38;9.60;;;;;;;6.07;100.00;103430.06;5032253;28;20035;-71
2022/01/22 11:59:03;;;;;;;13.55;6.20;;;;;;;5.97;100.00;103418.63;5014397;28;20162;-71
2022/01/22 12:01:37;;;;;;;12.15;6.55;;;;;;;5.96;100.00;103412.41;5011030;28;20053;-72
2022/01/22 12:04:06;;;;;;;17.38;8.38;;;;;;;5.97;100.00;103429.31;5012856;28;20041;-70
2022/01/22 12:06:32;;;;;;;19.67;8.18;;;;;;;6.08;100.00;103416.72;5011397;28;20052;-72
2022/01/22 12:09:08;;;;;;;15.93;7.43;;;;;;;6.10;100.00;103409.53;5018034;28;20395;-71
2022/01/22 12:14:50;;;;;;;11.57;6.25;;;;;;;6.14;100.00;103411.25;5017714;28;20049;-71
2022/01/22 12:17:26;;;;;;;13.55;6.25;;;;;;;5.95;100.00;103410.69;5013847;28;20064;-70
2022/01/22 12:22:35;;;;;;;15.63;6.78;;;;;;;5.95;100.00;103409.78;5009958;28;20073;-72
2022/01/22 12:25:03;;;;;;;17.13;8.05;;;;;;;6.08;100.00;103403.38;5019040;28;20429;-71
2022/01/22 12:27:47;;;;;;;16.98;7.70;;;;;;;6.08;100.00;103408.72;5011798;28;20025;-72
2022/01/22 12:30:14;;;;;;;17.80;6.77;;;;;;;6.06;100.00;103412.28;5015980;28;20030;-72
2022/01/22 12:32:51;;;;;;;11.85;6.80;;;;;;;6.11;100.00;103413.97;5015740;28;20333;-71
2022/01/22 12:35:43;;;;;;;12.05;5.57;;;;;;;6.18;100.00;103405.88;5013058;28;20025;-72
2022/01/22 12:38:24;;;;;;;14.25;6.32;;;;;;;6.17;100.00;103412.09;5010460;28;20298;-73
2022/01/22 12:40:55;;;;;;;16.83;6.72;;;;;;;6.19;100.00;103411.19;5016107;28;20030;-72
2022/01/22 12:43:28;;;;;;;12.13;5.72;;;;;;;6.20;100.00;103420.94;5017919;28;20033;-72
2022/01/22 12:45:56;;;;;;;13.30;6.07;;;;;;;6.20;100.00;103417.38;5014133;28;20441;-71
2022/01/22 12:48:21;;;;;;;11.50;6.50;;;;;;;6.12;100.00;103413.06;5011795;28;20064;-71
2022/01/22 12:50:47;;;;;;;10.63;6.88;;;;;;;6.11;100.00;103415.78;5011095;28;20105;-71
2022/01/22 12:53:14;;;;;;;13.85;6.53;;;;;;;6.01;100.00;103401.72;5012033;28;20104;-71